sensor_id;sensor_type;location;lat;lon;timestamp;pressure;altitude;pressure_sealevel;temperature;humidity
30967;BME280;17649;51.836;8.330;2022-11-18T00:02:15;99185.75;;;6.72;100.00
30967;BME280;17649;51.836;8.330;2022-11-18T00:05:15;99184.94;;;6.71;100.00
30967;BME280;17649;51.836;8.330;2022-11-18T00:08:15;99182.91;;;6.76;100.00
30967;BME280;17649;51.836;8.330;2022-11-18T00:11:16;99187.53;;;6.84;100.00
30967;BME280;17649;51.836;8.330;2022-11-18T00:14:36;99184.25;;;6.82;100.00
30967;BME280;17649;51.836;8.330;2022-11-18T00:17:36;99187.47;;;6.85;100.00
30967;BME280;17649;51.836;8.330;2022-11-18T00:20:36;99190.88;;;6.86;100.00
30967;BME280;17649;51.836;8.330;2022-11-18T00:23:38;99186.56;;;6.86;100.00
30967;BME280;17649;51.836;8.330;2022-11-18T00:26:38;99191.50;;;6.90;100.00
30967;BME280;17649;51.836;8.330;2022-11-18T00:29:38;99191.31;;;6.93;100.00
30967;BME280;17649;51.836;8.330;2022-11-18T00:32:38;99192.03;;;6.95;100.00
30967;BME280;17649;51.836;8.330;2022-11-18T00:35:39;99193.56;;;6.97;100.00
30967;BME280;17649;51.836;8.330;2022-11-18T00:38:39;99195.53;;;6.94;100.00
30967;BME280;17649;51.836;8.330;2022-11-18T00:41:39;99187.28;;;6.88;100.00
30967;BME280;17649;51.836;8.330;2022-11-18T00:44:58;99193.59;;;6.83;100.00
30967;BME280;17649;51.836;8.330;2022-11-18T00:47:58;99204.28;;;6.77;100.00
30967;BME280;17649;51.836;8.330;2022-11-18T00:51:05;99210.78;;;6.82;100.00
30967;BME280;17649;51.836;8.330;2022-11-18T00:54:05;99205.53;;;6.84;100.00
30967;BME280;17649;51.836;8.330;2022-11-18T00:57:06;99222.00;;;6.81;100.00
30967;BME280;17649;51.836;8.330;2022-11-18T01:00:06;99220.44;;;6.79;100.00
30967;BME280;17649;51.836;8.330;2022-11-18T01:03:07;99229.91;;;6.78;100.00
30967;BME280;17649;51.836;8.330;2022-11-18T01:06:08;99224.22;;;6.73;100.00
30967;BME280;17649;51.836;8.330;2022-11-18T01:09:08;99228.78;;;6.68;100.00
30967;BME280;17649;51.836;8.330;2022-11-18T01:12:09;99236.91;;;6.62;100.00
30967;BME280;17649;51.836;8.330;2022-11-18T01:15:28;99234.78;;;6.54;100.00
30967;BME280;17649;51.836;8.330;2022-11-18T01:18:29;99232.50;;;6.50;100.00
30967;BME280;17649;51.836;8.330;2022-11-18T01:21:29;99237.09;;;6.45;100.00
30967;BME280;17649;51.836;8.330;2022-11-18T01:24:33;99237.28;;;6.42;100.00
30967;BME280;17649;51.836;8.330;2022-11-18T01:27:33;99243.50;;;6.38;100.00
30967;BME280;17649;51.836;8.330;2022-11-18T01:30:36;99237.81;;;6.33;100.00
30967;BME280;17649;51.836;8.330;2022-11-18T01:33:37;99244.78;;;6.31;100.00
30967;BME280;17649;51.836;8.330;2022-11-18T01:36:37;99249.28;;;6.27;100.00
30967;BME280;17649;51.836;8.330;2022-11-18T01:39:37;99246.34;;;6.19;100.00
30967;BME280;17649;51.836;8.330;2022-11-18T01:42:38;99250.00;;;6.15;100.00
30967;BME280;17649;51.836;8.330;2022-11-18T01:45:38;99243.47;;;6.09;100.00
30967;BME280;17649;51.836;8.330;2022-11-18T01:48:39;99238.31;;;6.09;100.00
30967;BME280;17649;51.836;8.330;2022-11-18T01:51:49;99243.66;;;6.06;100.00
30967;BME280;17649;51.836;8.330;2022-11-18T01:54:52;99243.66;;;6.06;100.00
30967;BME280;17649;51.836;8.330;2022-11-18T01:58:00;99252.53;;;6.01;100.00
30967;BME280;17649;51.836;8.330;2022-11-18T02:01:03;99249.66;;;5.91;100.00
30967;BME280;17649;51.836;8.330;2022-11-18T02:04:04;99252.06;;;5.94;100.00
30967;BME280;17649;51.836;8.330;2022-11-18T02:07:04;99254.47;;;5.97;100.00
30967;BME280;17649;51.836;8.330;2022-11-18T02:10:06;99263.25;;;5.93;100.00
30967;BME280;17649;51.836;8.330;2022-11-18T02:13:06;99267.06;;;5.86;100.00
30967;BME280;17649;51.836;8.330;2022-11-18T02:16:07;99268.78;;;5.85;100.00
30967;BME280;17649;51.836;8.330;2022-11-18T02:31:57;99282.59;;;5.68;100.00
30967;BME280;17649;51.836;8.330;2022-11-18T02:35:41;99280.53;;;5.59;100.00
30967;BME280;17649;51.836;8.330;2022-11-18T02:38:29;99284.66;;;5.62;100.00
30967;BME280;17649;51.836;8.330;2022-11-18T02:41:30;99284.28;;;5.54;100.00
30967;BME280;17649;51.836;8.330;2022-11-18T02:44:33;99281.03;;;5.50;100.00
30967;BME280;17649;51.836;8.330;2022-11-18T02:47:36;99282.09;;;5.46;100.00
30967;BME280;17649;51.836;8.330;2022-11-18T02:50:37;99286.31;;;5.47;100.00
30967;BME280;17649;51.836;8.330;2022-11-18T02:53:38;99286.31;;;5.47;100.00
30967;BME280;17649;51.836;8.330;2022-11-18T02:56:40;99283.53;;;5.36;100.00
30967;BME280;17649;51.836;8.330;2022-11-18T02:59:41;99284.44;;;5.35;100.00
30967;BME280;17649;51.836;8.330;2022-11-18T03:02:45;99284.44;;;5.35;100.00
30967;BME280;17649;51.836;8.330;2022-11-18T03:05:47;99283.38;;;5.39;100.00
30967;BME280;17649;51.836;8.330;2022-11-18T03:08:49;99290.47;;;5.34;100.00
30967;BME280;17649;51.836;8.330;2022-11-18T03:21:18;99313.06;;;5.12;100.00
30967;BME280;17649;51.836;8.330;2022-11-18T03:24:22;99309.13;;;5.22;100.00
30967;BME280;17649;51.836;8.330;2022-11-18T03:27:33;99317.13;;;5.16;100.00
30967;BME280;17649;51.836;8.330;2022-11-18T03:30:36;99318.28;;;5.26;100.00
30967;BME280;17649;51.836;8.330;2022-11-18T03:33:46;99321.13;;;5.37;100.00
30967;BME280;17649;51.836;8.330;2022-11-18T03:36:51;99328.28;;;5.46;100.00
30967;BME280;17649;51.836;8.330;2022-11-18T03:40:03;99331.09;;;5.57;100.00
30967;BME280;17649;51.836;8.330;2022-11-18T03:43:09;99329.84;;;5.64;100.00
30967;BME280;17649;51.836;8.330;2022-11-18T03:46:16;99341.09;;;5.62;100.00
30967;BME280;17649;51.836;8.330;2022-11-18T03:49:25;99339.69;;;5.72;100.00
30967;BME280;17649;51.836;8.330;2022-11-18T03:52:31;99339.25;;;5.80;100.00
30967;BME280;17649;51.836;8.330;2022-11-18T03:55:38;99347.00;;;5.95;100.00
30967;BME280;17649;51.836;8.330;2022-11-18T03:58:47;99349.28;;;6.00;100.00
30967;BME280;17649;51.836;8.330;2022-11-18T04:01:54;99347.94;;;6.09;100.00
30967;BME280;17649;51.836;8.330;2022-11-18T04:04:59;99353.47;;;6.17;100.00
30967;BME280;17649;51.836;8.330;2022-11-18T04:08:04;99354.03;;;6.22;100.00
30967;BME280;17649;51.836;8.330;2022-11-18T04:11:14;99357.19;;;6.27;100.00
30967;BME280;17649;51.836;8.330;2022-11-18T04:14:37;99366.25;;;6.33;100.00
30967;BME280;17649;51.836;8.330;2022-11-18T04:17:39;99370.13;;;6.40;100.00
30967;BME280;17649;51.836;8.330;2022-11-18T04:20:39;99360.94;;;6.36;100.00
30967;BME280;17649;51.836;8.330;2022-11-18T04:23:40;99371.31;;;6.34;100.00
30967;BME280;17649;51.836;8.330;2022-11-18T04:26:40;99374.75;;;6.49;100.00
30967;BME280;17649;51.836;8.330;2022-11-18T04:29:40;99375.22;;;6.55;100.00
30967;BME280;17649;51.836;8.330;2022-11-18T04:32:41;99372.47;;;6.58;100.00
30967;BME280;17649;51.836;8.330;2022-11-18T04:35:41;99378.44;;;6.59;100.00
30967;BME280;17649;51.836;8.330;2022-11-18T04:38:41;99379.69;;;6.52;100.00
30967;BME280;17649;51.836;8.330;2022-11-18T04:41:41;99381.53;;;6.50;100.00
30967;BME280;17649;51.836;8.330;2022-11-18T04:44:57;99379.97;;;6.47;100.00
30967;BME280;17649;51.836;8.330;2022-11-18T04:47:57;99374.38;;;6.41;100.00
30967;BME280;17649;51.836;8.330;2022-11-18T04:51:07;99383.69;;;6.27;100.00
30967;BME280;17649;51.836;8.330;2022-11-18T04:54:08;99383.28;;;6.19;100.00
30967;BME280;17649;51.836;8.330;2022-11-18T04:57:08;99393.75;;;6.16;100.00
30967;BME280;17649;51.836;8.330;2022-11-18T05:00:09;99387.97;;;6.13;100.00
30967;BME280;17649;51.836;8.330;2022-11-18T05:03:09;99394.34;;;6.06;100.00
30967;BME280;17649;51.836;8.330;2022-11-18T05:06:10;99396.50;;;5.97;100.00
30967;BME280;17649;51.836;8.330;2022-11-18T05:09:10;99394.78;;;5.98;100.00
30967;BME280;17649;51.836;8.330;2022-11-18T05:12:12;99402.31;;;6.01;100.00
30967;BME280;17649;51.836;8.330;2022-11-18T05:15:31;99403.88;;;6.04;100.00
30967;BME280;17649;51.836;8.330;2022-11-18T05:18:32;99401.78;;;5.94;100.00
30967;BME280;17649;51.836;8.330;2022-11-18T05:21:32;99407.03;;;5.93;100.00
30967;BME280;17649;51.836;8.330;2022-11-18T05:24:32;99401.28;;;5.88;100.00
30967;BME280;17649;51.836;8.330;2022-11-18T05:27:33;99411.66;;;5.86;100.00
30967;BME280;17649;51.836;8.330;2022-11-18T05:30:33;99406.69;;;5.83;100.00
30967;BME280;17649;51.836;8.330;2022-11-18T05:33:34;99414.47;;;5.82;100.00
30967;BME280;17649;51.836;8.330;2022-11-18T05:36:34;99426.41;;;5.67;100.00
30967;BME280;17649;51.836;8.330;2022-11-18T05:39:35;99428.28;;;5.63;100.00
30967;BME280;17649;51.836;8.330;2022-11-18T05:42:35;99426.22;;;5.54;100.00
30967;BME280;17649;51.836;8.330;2022-11-18T05:45:54;99426.78;;;5.44;100.00
30967;BME280;17649;51.836;8.330;2022-11-18T05:48:55;99425.22;;;5.41;100.00
30967;BME280;17649;51.836;8.330;2022-11-18T05:51:55;99437.28;;;5.39;100.00
30967;BME280;17649;51.836;8.330;2022-11-18T05:54:55;99436.38;;;5.40;100.00
30967;BME280;17649;51.836;8.330;2022-11-18T05:57:56;99446.63;;;5.40;100.00
30967;BME280;17649;51.836;8.330;2022-11-18T06:01:00;99450.34;;;5.50;100.00
30967;BME280;17649;51.836;8.330;2022-11-18T06:04:03;99447.84;;;5.66;100.00
30967;BME280;17649;51.836;8.330;2022-11-18T06:10:25;99453.47;;;5.88;100.00
30967;BME280;17649;51.836;8.330;2022-11-18T06:13:33;99467.66;;;5.95;100.00
30967;BME280;17649;51.836;8.330;2022-11-18T06:16:36;99463.41;;;5.94;100.00
30967;BME280;17649;51.836;8.330;2022-11-18T06:19:39;99466.06;;;5.93;100.00
30967;BME280;17649;51.836;8.330;2022-11-18T06:22:39;99474.47;;;5.96;100.00
30967;BME280;17649;51.836;8.330;2022-11-18T06:25:40;99476.84;;;6.00;100.00
30967;BME280;17649;51.836;8.330;2022-11-18T06:28:43;99479.44;;;6.00;100.00
30967;BME280;17649;51.836;8.330;2022-11-18T06:31:44;99484.72;;;5.96;100.00
30967;BME280;17649;51.836;8.330;2022-11-18T06:34:44;99488.25;;;5.94;100.00
30967;BME280;17649;51.836;8.330;2022-11-18T06:37:45;99493.34;;;5.95;100.00
30967;BME280;17649;51.836;8.330;2022-11-18T06:40:46;99504.38;;;5.97;100.00
30967;BME280;17649;51.836;8.330;2022-11-18T06:43:46;99503.38;;;6.00;100.00
30967;BME280;17649;51.836;8.330;2022-11-18T06:46:46;99504.94;;;6.03;100.00
30967;BME280;17649;51.836;8.330;2022-11-18T06:49:56;99505.66;;;6.05;100.00
30967;BME280;17649;51.836;8.330;2022-11-18T06:52:59;99514.81;;;6.10;100.00
30967;BME280;17649;51.836;8.330;2022-11-18T06:56:07;99518.84;;;6.14;100.00
30967;BME280;17649;51.836;8.330;2022-11-18T06:59:08;99516.84;;;6.19;100.00
30967;BME280;17649;51.836;8.330;2022-11-18T07:02:08;99528.63;;;6.23;100.00
30967;BME280;17649;51.836;8.330;2022-11-18T07:05:09;99528.31;;;6.30;100.00
30967;BME280;17649;51.836;8.330;2022-11-18T07:08:09;99526.38;;;6.33;100.00
30967;BME280;17649;51.836;8.330;2022-11-18T07:11:12;99530.53;;;6.36;100.00
30967;BME280;17649;51.836;8.330;2022-11-18T07:14:12;99546.69;;;6.38;100.00
30967;BME280;17649;51.836;8.330;2022-11-18T07:17:13;99548.00;;;6.45;100.00
30967;BME280;17649;51.836;8.330;2022-11-18T07:20:13;99562.16;;;6.52;100.00
30967;BME280;17649;51.836;8.330;2022-11-18T07:23:14;99561.50;;;6.64;100.00
30967;BME280;17649;51.836;8.330;2022-11-18T07:26:15;99560.72;;;6.78;100.00
30967;BME280;17649;51.836;8.330;2022-11-18T07:29:15;99571.34;;;6.87;100.00
30967;BME280;17649;51.836;8.330;2022-11-18T07:32:15;99568.22;;;6.97;100.00
30967;BME280;17649;51.836;8.330;2022-11-18T07:35:16;99584.06;;;7.05;100.00
30967;BME280;17649;51.836;8.330;2022-11-18T07:38:17;99577.63;;;7.12;100.00
30967;BME280;17649;51.836;8.330;2022-11-18T07:41:20;99594.22;;;7.22;100.00
30967;BME280;17649;51.836;8.330;2022-11-18T07:44:20;99600.88;;;7.10;100.00
30967;BME280;17649;51.836;8.330;2022-11-18T07:47:21;99615.59;;;7.08;100.00
30967;BME280;17649;51.836;8.330;2022-11-18T07:50:21;99628.50;;;7.23;100.00
30967;BME280;17649;51.836;8.330;2022-11-18T07:53:21;99629.38;;;7.07;100.00
30967;BME280;17649;51.836;8.330;2022-11-18T07:56:22;99640.16;;;7.28;100.00
30967;BME280;17649;51.836;8.330;2022-11-18T07:59:23;99634.16;;;7.43;100.00
30967;BME280;17649;51.836;8.330;2022-11-18T08:02:23;99638.50;;;7.57;100.00
30967;BME280;17649;51.836;8.330;2022-11-18T08:05:23;99640.47;;;7.68;100.00
30967;BME280;17649;51.836;8.330;2022-11-18T08:08:24;99639.25;;;7.73;100.00
30967;BME280;17649;51.836;8.330;2022-11-18T08:11:24;99639.75;;;7.80;100.00
30967;BME280;17649;51.836;8.330;2022-11-18T08:14:25;99650.25;;;7.91;100.00
30967;BME280;17649;51.836;8.330;2022-11-18T08:17:26;99654.09;;;7.98;100.00
30967;BME280;17649;51.836;8.330;2022-11-18T08:20:26;99649.44;;;8.05;100.00
30967;BME280;17649;51.836;8.330;2022-11-18T08:23:26;99661.84;;;8.13;100.00
30967;BME280;17649;51.836;8.330;2022-11-18T08:26:27;99662.31;;;8.19;100.00
30967;BME280;17649;51.836;8.330;2022-11-18T08:29:27;99654.94;;;8.27;100.00
30967;BME280;17649;51.836;8.330;2022-11-18T08:32:27;99660.50;;;8.35;100.00
30967;BME280;17649;51.836;8.330;2022-11-18T08:35:28;99657.34;;;8.45;100.00
30967;BME280;17649;51.836;8.330;2022-11-18T08:38:28;99655.03;;;8.54;100.00
30967;BME280;17649;51.836;8.330;2022-11-18T08:44:28;99656.25;;;8.76;100.00
30967;BME280;17649;51.836;8.330;2022-11-18T08:47:32;99647.66;;;8.89;100.00
30967;BME280;17649;51.836;8.330;2022-11-18T08:50:32;99649.91;;;9.08;100.00
30967;BME280;17649;51.836;8.330;2022-11-18T08:53:32;99663.66;;;9.21;100.00
30967;BME280;17649;51.836;8.330;2022-11-18T08:56:32;99663.72;;;9.47;100.00
30967;BME280;17649;51.836;8.330;2022-11-18T08:59:33;99668.91;;;9.60;100.00
30967;BME280;17649;51.836;8.330;2022-11-18T09:02:33;99666.56;;;9.69;100.00
30967;BME280;17649;51.836;8.330;2022-11-18T09:05:33;99676.00;;;9.83;100.00
30967;BME280;17649;51.836;8.330;2022-11-18T09:08:33;99674.75;;;9.89;100.00
30967;BME280;17649;51.836;8.330;2022-11-18T09:11:34;99679.19;;;9.99;100.00
30967;BME280;17649;51.836;8.330;2022-11-18T09:14:36;99678.56;;;10.08;100.00
30967;BME280;17649;51.836;8.330;2022-11-18T09:17:36;99679.69;;;10.17;100.00
30967;BME280;17649;51.836;8.330;2022-11-18T09:20:36;99676.59;;;10.25;100.00
30967;BME280;17649;51.836;8.330;2022-11-18T09:23:37;99680.13;;;10.24;100.00
30967;BME280;17649;51.836;8.330;2022-11-18T09:26:38;99677.22;;;10.15;100.00
30967;BME280;17649;51.836;8.330;2022-11-18T09:29:38;99676.78;;;10.09;100.00
30967;BME280;17649;51.836;8.330;2022-11-18T09:32:38;99676.19;;;10.05;100.00
30967;BME280;17649;51.836;8.330;2022-11-18T09:35:42;99669.97;;;10.08;100.00
30967;BME280;17649;51.836;8.330;2022-11-18T09:38:42;99674.53;;;10.04;100.00
30967;BME280;17649;51.836;8.330;2022-11-18T09:41:46;99680.13;;;9.98;100.00
30967;BME280;17649;51.836;8.330;2022-11-18T09:44:50;99692.28;;;9.96;100.00
30967;BME280;17649;51.836;8.330;2022-11-18T09:47:57;99688.81;;;9.97;100.00
30967;BME280;17649;51.836;8.330;2022-11-18T09:50:59;99711.00;;;9.87;100.00
30967;BME280;17649;51.836;8.330;2022-11-18T09:54:00;99706.69;;;9.88;100.00
30967;BME280;17649;51.836;8.330;2022-11-18T09:57:01;99710.50;;;9.95;100.00
30967;BME280;17649;51.836;8.330;2022-11-18T10:00:01;99715.88;;;10.04;100.00
30967;BME280;17649;51.836;8.330;2022-11-18T10:03:06;99722.28;;;10.11;100.00
30967;BME280;17649;51.836;8.330;2022-11-18T10:06:14;99731.13;;;10.22;100.00
30967;BME280;17649;51.836;8.330;2022-11-18T10:12:21;99722.91;;;10.53;100.00
30967;BME280;17649;51.836;8.330;2022-11-18T10:15:32;99725.16;;;10.70;100.00
30967;BME280;17649;51.836;8.330;2022-11-18T10:24:57;99744.28;;;10.81;100.00
30967;BME280;17649;51.836;8.330;2022-11-18T10:27:57;99744.19;;;10.82;100.00
30967;BME280;17649;51.836;8.330;2022-11-18T10:31:05;99747.72;;;10.68;100.00
30967;BME280;17649;51.836;8.330;2022-11-18T10:34:09;99757.03;;;10.71;100.00
30967;BME280;17649;51.836;8.330;2022-11-18T10:37:20;99750.19;;;10.70;100.00
30967;BME280;17649;51.836;8.330;2022-11-18T10:40:24;99750.19;;;10.70;100.00
30967;BME280;17649;51.836;8.330;2022-11-18T10:43:41;99752.50;;;10.74;100.00
30967;BME280;17649;51.836;8.330;2022-11-18T10:46:41;99758.88;;;10.82;100.00
30967;BME280;17649;51.836;8.330;2022-11-18T10:49:45;99756.19;;;10.83;100.00
30967;BME280;17649;51.836;8.330;2022-11-18T10:52:51;99752.56;;;10.86;100.00
30967;BME280;17649;51.836;8.330;2022-11-18T10:58:59;99764.06;;;10.82;100.00
30967;BME280;17649;51.836;8.330;2022-11-18T11:05:20;99755.59;;;10.80;100.00
30967;BME280;17649;51.836;8.330;2022-11-18T11:08:21;99760.88;;;10.78;100.00
30967;BME280;17649;51.836;8.330;2022-11-18T11:11:26;99756.72;;;10.75;100.00
30967;BME280;17649;51.836;8.330;2022-11-18T11:20:43;99771.31;;;10.77;100.00
30967;BME280;17649;51.836;8.330;2022-11-18T11:23:44;99770.06;;;10.82;100.00
30967;BME280;17649;51.836;8.330;2022-11-18T11:26:48;99768.41;;;10.81;100.00
30967;BME280;17649;51.836;8.330;2022-11-18T11:36:24;99783.13;;;10.68;100.00
30967;BME280;17649;51.836;8.330;2022-11-18T11:42:48;99774.97;;;10.49;100.00
30967;BME280;17649;51.836;8.330;2022-11-18T11:45:58;99780.25;;;10.60;100.00
30967;BME280;17649;51.836;8.330;2022-11-18T11:49:15;99785.31;;;10.49;100.00
30967;BME280;17649;51.836;8.330;2022-11-18T11:52:24;99783.16;;;10.42;100.00
30967;BME280;17649;51.836;8.330;2022-11-18T11:55:31;99782.09;;;10.32;100.00
30967;BME280;17649;51.836;8.330;2022-11-18T12:04:54;99786.03;;;10.25;100.00
30967;BME280;17649;51.836;8.330;2022-11-18T12:07:57;99788.09;;;10.33;100.00
30967;BME280;17649;51.836;8.330;2022-11-18T12:11:00;99793.28;;;10.33;100.00
30967;BME280;17649;51.836;8.330;2022-11-18T12:14:24;99797.41;;;10.35;100.00
30967;BME280;17649;51.836;8.330;2022-11-18T12:17:26;99801.34;;;10.28;100.00
30967;BME280;17649;51.836;8.330;2022-11-18T12:20:34;99799.69;;;10.27;100.00
30967;BME280;17649;51.836;8.330;2022-11-18T12:24:14;99794.47;;;10.14;100.00
30967;BME280;17649;51.836;8.330;2022-11-18T12:27:53;99798.94;;;10.12;100.00
30967;BME280;17649;51.836;8.330;2022-11-18T12:30:37;99797.16;;;10.13;100.00
30967;BME280;17649;51.836;8.330;2022-11-18T12:44:31;99814.91;;;9.65;100.00
30967;BME280;17649;51.836;8.330;2022-11-18T12:50:45;99823.25;;;9.56;100.00
30967;BME280;17649;51.836;8.330;2022-11-18T12:53:46;99827.13;;;9.49;100.00
30967;BME280;17649;51.836;8.330;2022-11-18T12:56:47;99823.47;;;9.53;100.00
30967;BME280;17649;51.836;8.330;2022-11-18T12:59:48;99821.97;;;9.49;100.00
30967;BME280;17649;51.836;8.330;2022-11-18T13:02:53;99828.47;;;9.42;100.00
30967;BME280;17649;51.836;8.330;2022-11-18T13:05:57;99826.31;;;9.48;100.00
30967;BME280;17649;51.836;8.330;2022-11-18T13:09:00;99825.47;;;9.48;100.00
30967;BME280;17649;51.836;8.330;2022-11-18T13:12:03;99833.06;;;9.37;100.00
30967;BME280;17649;51.836;8.330;2022-11-18T13:15:05;99828.06;;;9.48;100.00
30967;BME280;17649;51.836;8.330;2022-11-18T13:18:28;99834.78;;;9.50;100.00
30967;BME280;17649;51.836;8.330;2022-11-18T13:21:28;99833.72;;;9.40;100.00
30967;BME280;17649;51.836;8.330;2022-11-18T13:24:47;99844.13;;;9.53;100.00
30967;BME280;17649;51.836;8.330;2022-11-18T13:27:49;99842.16;;;9.56;100.00
30967;BME280;17649;51.836;8.330;2022-11-18T13:30:53;99849.34;;;9.51;100.00
30967;BME280;17649;51.836;8.330;2022-11-18T13:34:01;99846.34;;;9.45;100.00
30967;BME280;17649;51.836;8.330;2022-11-18T13:37:10;99854.50;;;9.24;100.00
30967;BME280;17649;51.836;8.330;2022-11-18T13:40:30;99851.94;;;9.10;100.00
30967;BME280;17649;51.836;8.330;2022-11-18T13:43:49;99851.94;;;8.96;100.00
30967;BME280;17649;51.836;8.330;2022-11-18T13:46:51;99858.84;;;8.95;100.00
30967;BME280;17649;51.836;8.330;2022-11-18T13:50:14;99863.19;;;8.81;100.00
30967;BME280;17649;51.836;8.330;2022-11-18T13:53:32;99858.13;;;8.79;100.00
30967;BME280;17649;51.836;8.330;2022-11-18T13:56:35;99858.28;;;8.76;100.00
30967;BME280;17649;51.836;8.330;2022-11-18T13:59:36;99853.88;;;8.78;100.00
30967;BME280;17649;51.836;8.330;2022-11-18T14:02:37;99853.59;;;8.69;100.00
30967;BME280;17649;51.836;8.330;2022-11-18T14:05:38;99863.91;;;8.69;100.00
30967;BME280;17649;51.836;8.330;2022-11-18T14:08:39;99874.31;;;8.67;100.00
30967;BME280;17649;51.836;8.330;2022-11-18T14:11:43;99875.22;;;8.52;100.00
30967;BME280;17649;51.836;8.330;2022-11-18T14:14:43;99880.25;;;8.39;100.00
30967;BME280;17649;51.836;8.330;2022-11-18T14:17:50;99884.38;;;8.42;100.00
30967;BME280;17649;51.836;8.330;2022-11-18T14:20:52;99882.63;;;8.42;100.00
30967;BME280;17649;51.836;8.330;2022-11-18T14:23:52;99879.88;;;8.45;100.00
30967;BME280;17649;51.836;8.330;2022-11-18T14:26:53;99886.34;;;8.52;100.00
30967;BME280;17649;51.836;8.330;2022-11-18T14:29:53;99884.78;;;8.50;100.00
30967;BME280;17649;51.836;8.330;2022-11-18T14:36:15;99904.00;;;8.44;100.00
30967;BME280;17649;51.836;8.330;2022-11-18T14:39:18;99908.03;;;8.34;100.00
30967;BME280;17649;51.836;8.330;2022-11-18T14:42:20;99915.34;;;8.26;100.00
30967;BME280;17649;51.836;8.330;2022-11-18T14:45:22;99928.13;;;8.27;100.00
30967;BME280;17649;51.836;8.330;2022-11-18T14:48:26;99920.84;;;8.20;100.00
30967;BME280;17649;51.836;8.330;2022-11-18T14:51:27;99928.06;;;8.13;100.00
30967;BME280;17649;51.836;8.330;2022-11-18T14:54:27;99927.53;;;7.92;100.00
30967;BME280;17649;51.836;8.330;2022-11-18T14:57:27;99934.81;;;7.84;100.00
30967;BME280;17649;51.836;8.330;2022-11-18T15:00:27;99940.50;;;7.91;100.00
30967;BME280;17649;51.836;8.330;2022-11-18T15:03:27;99944.63;;;7.93;100.00
30967;BME280;17649;51.836;8.330;2022-11-18T15:06:28;99943.47;;;7.83;100.00
30967;BME280;17649;51.836;8.330;2022-11-18T15:09:28;99948.13;;;7.76;100.00
30967;BME280;17649;51.836;8.330;2022-11-18T15:12:28;99947.44;;;7.73;100.00
30967;BME280;17649;51.836;8.330;2022-11-18T15:15:28;99948.53;;;7.69;100.00
30967;BME280;17649;51.836;8.330;2022-11-18T15:18:29;99949.34;;;7.54;100.00
30967;BME280;17649;51.836;8.330;2022-11-18T15:21:29;99954.19;;;7.60;100.00
30967;BME280;17649;51.836;8.330;2022-11-18T15:24:30;99947.31;;;7.60;100.00
30967;BME280;17649;51.836;8.330;2022-11-18T15:27:30;99955.59;;;7.50;100.00
30967;BME280;17649;51.836;8.330;2022-11-18T15:30:30;99958.91;;;7.52;100.00
30967;BME280;17649;51.836;8.330;2022-11-18T15:33:30;99970.44;;;7.44;100.00
30967;BME280;17649;51.836;8.330;2022-11-18T15:36:31;99977.34;;;7.44;100.00
30967;BME280;17649;51.836;8.330;2022-11-18T15:39:31;99979.38;;;7.37;100.00
30967;BME280;17649;51.836;8.330;2022-11-18T15:42:31;99993.41;;;7.32;100.00
30967;BME280;17649;51.836;8.330;2022-11-18T15:45:31;99994.25;;;7.32;100.00
30967;BME280;17649;51.836;8.330;2022-11-18T15:48:32;99987.97;;;7.21;100.00
30967;BME280;17649;51.836;8.330;2022-11-18T15:51:32;99987.38;;;7.15;100.00
30967;BME280;17649;51.836;8.330;2022-11-18T15:54:32;99990.34;;;7.08;100.00
30967;BME280;17649;51.836;8.330;2022-11-18T15:57:33;99996.63;;;7.02;100.00
30967;BME280;17649;51.836;8.330;2022-11-18T16:00:33;99996.09;;;6.96;100.00
30967;BME280;17649;51.836;8.330;2022-11-18T16:03:33;100003.56;;;6.83;100.00
30967;BME280;17649;51.836;8.330;2022-11-18T16:06:34;100009.63;;;6.82;100.00
30967;BME280;17649;51.836;8.330;2022-11-18T16:09:34;100012.06;;;6.85;100.00
30967;BME280;17649;51.836;8.330;2022-11-18T16:12:53;100009.50;;;6.85;100.00
30967;BME280;17649;51.836;8.330;2022-11-18T16:15:53;100020.06;;;6.79;100.00
30967;BME280;17649;51.836;8.330;2022-11-18T16:18:54;100024.31;;;6.80;100.00
30967;BME280;17649;51.836;8.330;2022-11-18T16:21:54;100020.38;;;6.73;100.00
30967;BME280;17649;51.836;8.330;2022-11-18T16:24:55;100022.03;;;6.74;100.00
30967;BME280;17649;51.836;8.330;2022-11-18T16:27:55;100028.84;;;6.75;100.00
30967;BME280;17649;51.836;8.330;2022-11-18T16:30:56;100034.16;;;6.72;100.00
30967;BME280;17649;51.836;8.330;2022-11-18T16:34:24;100041.09;;;6.70;100.00
30967;BME280;17649;51.836;8.330;2022-11-18T16:37:25;100041.22;;;6.67;100.00
30967;BME280;17649;51.836;8.330;2022-11-18T16:40:25;100051.81;;;6.61;100.00
30967;BME280;17649;51.836;8.330;2022-11-18T16:43:25;100053.63;;;6.58;100.00
30967;BME280;17649;51.836;8.330;2022-11-18T16:46:25;100065.34;;;6.64;100.00
30967;BME280;17649;51.836;8.330;2022-11-18T16:49:26;100064.91;;;6.56;100.00
30967;BME280;17649;51.836;8.330;2022-11-18T16:52:26;100067.41;;;6.39;100.00
30967;BME280;17649;51.836;8.330;2022-11-18T16:55:26;100064.78;;;6.40;100.00
30967;BME280;17649;51.836;8.330;2022-11-18T16:58:28;100068.44;;;6.35;100.00
30967;BME280;17649;51.836;8.330;2022-11-18T17:01:28;100068.53;;;6.33;100.00
30967;BME280;17649;51.836;8.330;2022-11-18T17:04:29;100064.16;;;6.35;100.00
30967;BME280;17649;51.836;8.330;2022-11-18T17:07:29;100067.09;;;6.27;100.00
30967;BME280;17649;51.836;8.330;2022-11-18T17:10:29;100072.56;;;6.20;100.00
30967;BME280;17649;51.836;8.330;2022-11-18T17:13:30;100071.72;;;6.19;100.00
30967;BME280;17649;51.836;8.330;2022-11-18T17:16:30;100085.13;;;6.07;100.00
30967;BME280;17649;51.836;8.330;2022-11-18T17:19:30;100082.44;;;6.10;100.00
30967;BME280;17649;51.836;8.330;2022-11-18T17:22:30;100082.84;;;6.01;100.00
30967;BME280;17649;51.836;8.330;2022-11-18T17:25:32;100088.75;;;5.83;100.00
30967;BME280;17649;51.836;8.330;2022-11-18T17:28:33;100088.88;;;5.80;100.00
30967;BME280;17649;51.836;8.330;2022-11-18T17:31:33;100093.00;;;5.84;100.00